Thành phố Hồ Chí Minh, Việt Nam

09:22 PM ICT vào 26 Tháng giêng, 2015 (GMT +0700)
Tansonnhat | Change Station
CLOSE
Current Station
Airport
Location: Ho Chi Minh,
Elevation: 62 ft
Nearby Weather Stations

Elev 62 ft 10.82 °N, 106.67 °E | Updated 22 minutes ago

Partly Cloudy
Hơi Có Mây
77 ° F
Feels Like 77 ° F
N
5
Gió Thay đổi Gió from Nam - Ðông Nam

Hôm Nay
High -- | Low -- ° F
--% Chance of Precip.
Yesterday
High -- | Low -- ° F
Precip. -- in
6:17 AM 5:54 PM
Lưỡi liềm, 43% visible
Áp Suất 29.95 in
Tầm Nhìn Xa 6.2 Dặm (miles)
Mây Few 2000 ft
Ðiểm Sương 64 ° F
Ðộ Ẩm 65%
Rainfall 0.00 in
Snow Depth Not available.
UV 0 out of 12
Pollen Not available.
Air Quality Not available.
Flu Activity Not available.
METAR VVTS 261400Z 15004KT 130V190 9999 FEW020 25/18 Q1014 NOSIG

More Conditions Fewer Conditions

Áp Suất 29.95 in
Tầm Nhìn Xa 6.2 Dặm (miles)
Mây Few 2000 ft
Ðiểm Sương 64 ° F
Ðộ Ẩm 65%
Rainfall 0.00 in
Snow Depth Not available.
UV 0 out of 12
Pollen Not available.
Air Quality Not available.
Flu Activity Not available.
METAR VVTS 261400Z 15004KT 130V190 9999 FEW020 25/18 Q1014 NOSIG

More Conditions Fewer Conditions

10-Day Weather Forecast

Almanac

Thiên văn học

Jan. 26, 2015 Rise Set
Actual Time
Civil Twilight
Nautical Twilight
Astronomical Twilight
Mặt trăng
Length Of Visible Light
Độ dài của Ngày
Tomorrow will be .
, % of the Moon is Illuminated

Today's Extremes

Country Highs Country Lows

Community

WunderPhotos

Upload Photos

1,790,219 photos uploaded!

WunderBlogs® & News

Nearby

Air Quality

  Air Quality AQ Index Pollutant
Not available.

Ðộ Sâu Tuyết

Station Depth Elevation

Earthquake Activity

City Distance Mag. Time & Date
Minimum magnitude displayed is 2.5.

Coastal Water Temperatures

Khu Vực Nhiệt Ðộ

Nearby Weather Stations